sensor_id;sensor_type;location;lat;lon;timestamp;P1;durP1;ratioP1;P2;durP2;ratioP2
52918;SDS011;38793;52.690;6.812;2023-04-30T00:01:52;9.20;;;4.43;;
52918;SDS011;38793;52.690;6.812;2023-04-30T00:04:17;9.30;;;3.90;;
52918;SDS011;38793;52.690;6.812;2023-04-30T00:06:43;7.85;;;4.43;;
52918;SDS011;38793;52.690;6.812;2023-04-30T00:09:08;9.87;;;4.87;;
52918;SDS011;38793;52.690;6.812;2023-04-30T00:11:34;8.82;;;5.03;;
52918;SDS011;38793;52.690;6.812;2023-04-30T00:14:00;8.93;;;4.80;;
52918;SDS011;38793;52.690;6.812;2023-04-30T00:16:25;8.30;;;4.87;;
52918;SDS011;38793;52.690;6.812;2023-04-30T00:18:51;6.00;;;4.77;;
52918;SDS011;38793;52.690;6.812;2023-04-30T00:21:17;9.00;;;5.47;;
52918;SDS011;38793;52.690;6.812;2023-04-30T00:23:42;7.70;;;4.97;;
52918;SDS011;38793;52.690;6.812;2023-04-30T00:26:08;7.40;;;5.57;;
52918;SDS011;38793;52.690;6.812;2023-04-30T00:28:33;9.70;;;5.33;;
52918;SDS011;38793;52.690;6.812;2023-04-30T00:30:59;6.27;;;4.53;;
52918;SDS011;38793;52.690;6.812;2023-04-30T00:33:25;10.07;;;5.63;;
52918;SDS011;38793;52.690;6.812;2023-04-30T00:35:50;9.43;;;5.30;;
52918;SDS011;38793;52.690;6.812;2023-04-30T00:38:16;9.27;;;5.60;;
52918;SDS011;38793;52.690;6.812;2023-04-30T00:40:41;9.03;;;5.83;;
52918;SDS011;38793;52.690;6.812;2023-04-30T00:45:33;9.88;;;6.20;;
52918;SDS011;38793;52.690;6.812;2023-04-30T00:47:59;9.87;;;6.37;;
52918;SDS011;38793;52.690;6.812;2023-04-30T00:50:25;10.90;;;6.53;;
52918;SDS011;38793;52.690;6.812;2023-04-30T00:52:50;10.93;;;6.93;;
52918;SDS011;38793;52.690;6.812;2023-04-30T00:55:16;5.20;;;3.78;;
52918;SDS011;38793;52.690;6.812;2023-04-30T00:57:42;6.15;;;3.72;;
52918;SDS011;38793;52.690;6.812;2023-04-30T01:00:08;9.47;;;4.63;;
52918;SDS011;38793;52.690;6.812;2023-04-30T01:02:35;4.82;;;2.88;;
52918;SDS011;38793;52.690;6.812;2023-04-30T01:05:02;4.93;;;2.25;;
52918;SDS011;38793;52.690;6.812;2023-04-30T01:07:29;6.35;;;2.95;;
52918;SDS011;38793;52.690;6.812;2023-04-30T01:09:56;6.18;;;2.72;;
52918;SDS011;38793;52.690;6.812;2023-04-30T01:20:25;7.78;;;5.97;;
52918;SDS011;38793;52.690;6.812;2023-04-30T01:22:54;12.63;;;6.40;;
52918;SDS011;38793;52.690;6.812;2023-04-30T01:28:15;8.95;;;6.03;;
52918;SDS011;38793;52.690;6.812;2023-04-30T01:30:43;10.85;;;6.70;;
52918;SDS011;38793;52.690;6.812;2023-04-30T01:33:09;11.45;;;7.28;;
52918;SDS011;38793;52.690;6.812;2023-04-30T01:38:49;10.52;;;6.88;;
52918;SDS011;38793;52.690;6.812;2023-04-30T01:44:35;21.25;;;7.68;;
52918;SDS011;38793;52.690;6.812;2023-04-30T01:46:55;2.83;;;2.53;;
52918;SDS011;38793;52.690;6.812;2023-04-30T01:52:39;3.10;;;2.38;;
52918;SDS011;38793;52.690;6.812;2023-04-30T01:55:33;9.63;;;6.70;;
52918;SDS011;38793;52.690;6.812;2023-04-30T01:58:15;8.50;;;6.18;;
52918;SDS011;38793;52.690;6.812;2023-04-30T02:00:42;11.48;;;7.85;;
52918;SDS011;38793;52.690;6.812;2023-04-30T02:03:08;7.80;;;4.87;;
52918;SDS011;38793;52.690;6.812;2023-04-30T02:05:33;10.60;;;4.30;;
52918;SDS011;38793;52.690;6.812;2023-04-30T02:07:59;6.97;;;6.27;;
52918;SDS011;38793;52.690;6.812;2023-04-30T02:10:25;19.87;;;5.37;;
52918;SDS011;38793;52.690;6.812;2023-04-30T02:12:51;2.97;;;2.78;;
52918;SDS011;38793;52.690;6.812;2023-04-30T02:15:17;6.50;;;2.80;;
52918;SDS011;38793;52.690;6.812;2023-04-30T02:17:43;2.30;;;2.10;;
52918;SDS011;38793;52.690;6.812;2023-04-30T02:20:09;7.20;;;2.63;;
52918;SDS011;38793;52.690;6.812;2023-04-30T02:22:35;3.90;;;3.53;;
52918;SDS011;38793;52.690;6.812;2023-04-30T02:25:01;5.10;;;4.13;;
52918;SDS011;38793;52.690;6.812;2023-04-30T02:27:28;5.60;;;4.18;;
52918;SDS011;38793;52.690;6.812;2023-04-30T02:29:55;5.20;;;3.25;;
52918;SDS011;38793;52.690;6.812;2023-04-30T02:32:21;4.03;;;2.88;;
52918;SDS011;38793;52.690;6.812;2023-04-30T02:34:46;8.55;;;4.18;;
52918;SDS011;38793;52.690;6.812;2023-04-30T02:37:12;11.73;;;6.57;;
52918;SDS011;38793;52.690;6.812;2023-04-30T02:39:38;13.13;;;7.77;;
52918;SDS011;38793;52.690;6.812;2023-04-30T02:42:03;13.33;;;8.00;;
52918;SDS011;38793;52.690;6.812;2023-04-30T02:44:30;10.85;;;7.13;;
52918;SDS011;38793;52.690;6.812;2023-04-30T02:46:57;9.23;;;6.65;;
52918;SDS011;38793;52.690;6.812;2023-04-30T02:49:22;8.87;;;5.90;;
52918;SDS011;38793;52.690;6.812;2023-04-30T02:51:48;9.47;;;5.67;;
52918;SDS011;38793;52.690;6.812;2023-04-30T02:54:13;4.57;;;3.97;;
52918;SDS011;38793;52.690;6.812;2023-04-30T02:56:39;3.22;;;2.75;;
52918;SDS011;38793;52.690;6.812;2023-04-30T02:59:05;5.63;;;3.20;;
52918;SDS011;38793;52.690;6.812;2023-04-30T03:01:32;5.65;;;4.32;;
52918;SDS011;38793;52.690;6.812;2023-04-30T03:03:57;5.27;;;4.43;;
52918;SDS011;38793;52.690;6.812;2023-04-30T03:06:23;9.70;;;6.07;;
52918;SDS011;38793;52.690;6.812;2023-04-30T03:08:49;3.17;;;2.87;;
52918;SDS011;38793;52.690;6.812;2023-04-30T03:11:14;2.33;;;2.13;;
52918;SDS011;38793;52.690;6.812;2023-04-30T03:13:41;7.78;;;4.03;;
52918;SDS011;38793;52.690;6.812;2023-04-30T03:16:07;8.40;;;4.70;;
52918;SDS011;38793;52.690;6.812;2023-04-30T03:18:33;6.50;;;5.37;;
52918;SDS011;38793;52.690;6.812;2023-04-30T03:20:58;12.88;;;7.03;;
52918;SDS011;38793;52.690;6.812;2023-04-30T03:23:27;5.37;;;4.60;;
52918;SDS011;38793;52.690;6.812;2023-04-30T03:25:53;9.07;;;6.85;;
52918;SDS011;38793;52.690;6.812;2023-04-30T03:28:18;11.80;;;7.20;;
52918;SDS011;38793;52.690;6.812;2023-04-30T03:30:45;7.68;;;6.80;;
52918;SDS011;38793;52.690;6.812;2023-04-30T03:33:10;7.88;;;5.80;;
52918;SDS011;38793;52.690;6.812;2023-04-30T03:35:36;6.67;;;5.97;;
52918;SDS011;38793;52.690;6.812;2023-04-30T03:38:02;6.93;;;6.17;;
52918;SDS011;38793;52.690;6.812;2023-04-30T03:40:27;11.40;;;7.73;;
52918;SDS011;38793;52.690;6.812;2023-04-30T03:42:53;8.73;;;7.27;;
52918;SDS011;38793;52.690;6.812;2023-04-30T03:45:19;10.07;;;6.72;;
52918;SDS011;38793;52.690;6.812;2023-04-30T03:47:45;2.60;;;2.00;;
52918;SDS011;38793;52.690;6.812;2023-04-30T03:50:10;4.53;;;4.13;;
52918;SDS011;38793;52.690;6.812;2023-04-30T03:52:36;16.03;;;10.60;;
52918;SDS011;38793;52.690;6.812;2023-04-30T03:55:02;10.50;;;7.90;;
52918;SDS011;38793;52.690;6.812;2023-04-30T03:57:28;12.27;;;7.82;;
52918;SDS011;38793;52.690;6.812;2023-04-30T03:59:54;9.63;;;8.00;;
52918;SDS011;38793;52.690;6.812;2023-04-30T04:02:20;14.68;;;9.68;;
52918;SDS011;38793;52.690;6.812;2023-04-30T04:04:46;11.57;;;8.13;;
52918;SDS011;38793;52.690;6.812;2023-04-30T04:07:12;9.32;;;7.63;;
52918;SDS011;38793;52.690;6.812;2023-04-30T04:09:39;10.80;;;8.07;;
52918;SDS011;38793;52.690;6.812;2023-04-30T04:12:04;10.48;;;7.82;;
52918;SDS011;38793;52.690;6.812;2023-04-30T04:14:30;11.43;;;9.25;;
52918;SDS011;38793;52.690;6.812;2023-04-30T04:16:56;18.60;;;9.70;;
52918;SDS011;38793;52.690;6.812;2023-04-30T04:19:25;12.82;;;8.00;;
52918;SDS011;38793;52.690;6.812;2023-04-30T04:21:51;9.40;;;8.50;;
52918;SDS011;38793;52.690;6.812;2023-04-30T04:24:16;11.53;;;7.83;;
52918;SDS011;38793;52.690;6.812;2023-04-30T04:26:42;12.57;;;8.53;;
52918;SDS011;38793;52.690;6.812;2023-04-30T04:29:08;8.17;;;5.73;;
52918;SDS011;38793;52.690;6.812;2023-04-30T04:31:35;8.57;;;5.80;;
52918;SDS011;38793;52.690;6.812;2023-04-30T04:34:01;9.50;;;7.75;;
52918;SDS011;38793;52.690;6.812;2023-04-30T04:36:28;12.15;;;9.30;;
52918;SDS011;38793;52.690;6.812;2023-04-30T04:38:55;14.35;;;7.82;;
52918;SDS011;38793;52.690;6.812;2023-04-30T04:41:30;13.18;;;8.52;;
52918;SDS011;38793;52.690;6.812;2023-04-30T04:43:56;13.05;;;8.68;;
52918;SDS011;38793;52.690;6.812;2023-04-30T04:46:23;12.55;;;9.43;;
52918;SDS011;38793;52.690;6.812;2023-04-30T04:48:49;12.57;;;8.50;;
52918;SDS011;38793;52.690;6.812;2023-04-30T04:51:15;20.65;;;10.25;;
52918;SDS011;38793;52.690;6.812;2023-04-30T04:53:41;7.53;;;6.80;;
52918;SDS011;38793;52.690;6.812;2023-04-30T04:56:06;16.40;;;10.07;;
52918;SDS011;38793;52.690;6.812;2023-04-30T04:58:32;10.80;;;9.57;;
52918;SDS011;38793;52.690;6.812;2023-04-30T05:00:58;9.73;;;8.73;;
52918;SDS011;38793;52.690;6.812;2023-04-30T05:03:25;17.30;;;9.70;;
52918;SDS011;38793;52.690;6.812;2023-04-30T05:05:55;11.38;;;9.48;;
52918;SDS011;38793;52.690;6.812;2023-04-30T05:08:21;17.65;;;11.00;;
52918;SDS011;38793;52.690;6.812;2023-04-30T05:10:46;14.70;;;9.80;;
52918;SDS011;38793;52.690;6.812;2023-04-30T05:13:12;20.15;;;10.18;;
52918;SDS011;38793;52.690;6.812;2023-04-30T05:15:38;15.67;;;9.73;;
52918;SDS011;38793;52.690;6.812;2023-04-30T05:18:03;22.63;;;10.60;;
52918;SDS011;38793;52.690;6.812;2023-04-30T05:20:29;16.80;;;10.80;;
52918;SDS011;38793;52.690;6.812;2023-04-30T05:22:54;16.27;;;10.07;;
52918;SDS011;38793;52.690;6.812;2023-04-30T05:25:20;14.73;;;9.83;;
52918;SDS011;38793;52.690;6.812;2023-04-30T05:27:45;15.30;;;9.50;;
52918;SDS011;38793;52.690;6.812;2023-04-30T05:30:11;15.50;;;10.50;;
52918;SDS011;38793;52.690;6.812;2023-04-30T05:32:37;18.98;;;10.50;;
52918;SDS011;38793;52.690;6.812;2023-04-30T05:35:02;14.83;;;10.20;;
52918;SDS011;38793;52.690;6.812;2023-04-30T05:37:28;15.25;;;10.38;;
52918;SDS011;38793;52.690;6.812;2023-04-30T05:39:54;25.33;;;9.87;;
52918;SDS011;38793;52.690;6.812;2023-04-30T05:42:19;15.05;;;9.52;;
52918;SDS011;38793;52.690;6.812;2023-04-30T05:44:45;13.18;;;9.68;;
52918;SDS011;38793;52.690;6.812;2023-04-30T05:47:12;15.00;;;9.57;;
52918;SDS011;38793;52.690;6.812;2023-04-30T05:49:37;12.43;;;9.47;;
52918;SDS011;38793;52.690;6.812;2023-04-30T05:52:03;12.40;;;7.27;;
52918;SDS011;38793;52.690;6.812;2023-04-30T05:54:29;15.00;;;7.78;;
52918;SDS011;38793;52.690;6.812;2023-04-30T05:56:55;17.55;;;8.38;;
52918;SDS011;38793;52.690;6.812;2023-04-30T05:59:21;12.75;;;6.40;;
52918;SDS011;38793;52.690;6.812;2023-04-30T06:01:46;10.95;;;5.65;;
52918;SDS011;38793;52.690;6.812;2023-04-30T06:04:12;10.17;;;5.27;;
52918;SDS011;38793;52.690;6.812;2023-04-30T06:06:37;13.00;;;6.28;;
52918;SDS011;38793;52.690;6.812;2023-04-30T06:09:03;13.30;;;5.83;;
52918;SDS011;38793;52.690;6.812;2023-04-30T06:11:29;12.90;;;6.87;;
52918;SDS011;38793;52.690;6.812;2023-04-30T06:13:55;11.00;;;6.13;;
52918;SDS011;38793;52.690;6.812;2023-04-30T06:16:20;14.75;;;4.80;;
52918;SDS011;38793;52.690;6.812;2023-04-30T06:18:47;11.13;;;4.50;;
52918;SDS011;38793;52.690;6.812;2023-04-30T06:21:12;16.67;;;4.90;;
52918;SDS011;38793;52.690;6.812;2023-04-30T06:23:38;10.57;;;4.13;;
52918;SDS011;38793;52.690;6.812;2023-04-30T06:26:04;13.47;;;4.03;;
52918;SDS011;38793;52.690;6.812;2023-04-30T06:28:29;14.25;;;4.30;;
52918;SDS011;38793;52.690;6.812;2023-04-30T06:30:55;13.10;;;4.40;;
52918;SDS011;38793;52.690;6.812;2023-04-30T06:33:21;11.63;;;4.47;;
52918;SDS011;38793;52.690;6.812;2023-04-30T06:35:46;14.53;;;4.40;;
52918;SDS011;38793;52.690;6.812;2023-04-30T06:38:14;14.40;;;4.18;;
52918;SDS011;38793;52.690;6.812;2023-04-30T06:40:41;16.20;;;3.85;;
52918;SDS011;38793;52.690;6.812;2023-04-30T06:43:07;9.50;;;4.13;;
52918;SDS011;38793;52.690;6.812;2023-04-30T06:45:33;17.40;;;4.33;;
52918;SDS011;38793;52.690;6.812;2023-04-30T06:47:59;13.93;;;4.60;;
52918;SDS011;38793;52.690;6.812;2023-04-30T06:50:25;9.93;;;3.90;;
52918;SDS011;38793;52.690;6.812;2023-04-30T06:52:50;10.02;;;5.00;;
52918;SDS011;38793;52.690;6.812;2023-04-30T06:55:16;12.33;;;5.13;;
52918;SDS011;38793;52.690;6.812;2023-04-30T06:57:42;31.35;;;5.10;;
52918;SDS011;38793;52.690;6.812;2023-04-30T07:00:07;112.67;;;13.30;;
52918;SDS011;38793;52.690;6.812;2023-04-30T07:02:33;170.00;;;19.23;;
52918;SDS011;38793;52.690;6.812;2023-04-30T07:04:59;25.13;;;4.93;;
52918;SDS011;38793;52.690;6.812;2023-04-30T07:07:25;16.57;;;4.13;;
52918;SDS011;38793;52.690;6.812;2023-04-30T07:09:51;10.18;;;2.78;;
52918;SDS011;38793;52.690;6.812;2023-04-30T07:12:17;14.82;;;3.42;;
52918;SDS011;38793;52.690;6.812;2023-04-30T07:14:44;16.45;;;3.53;;
52918;SDS011;38793;52.690;6.812;2023-04-30T07:17:09;17.33;;;4.83;;
52918;SDS011;38793;52.690;6.812;2023-04-30T07:19:35;15.43;;;4.00;;
52918;SDS011;38793;52.690;6.812;2023-04-30T07:22:01;9.75;;;3.17;;
52918;SDS011;38793;52.690;6.812;2023-04-30T07:24:27;12.43;;;4.03;;
52918;SDS011;38793;52.690;6.812;2023-04-30T07:26:52;8.65;;;3.42;;
52918;SDS011;38793;52.690;6.812;2023-04-30T07:29:18;10.43;;;3.20;;
52918;SDS011;38793;52.690;6.812;2023-04-30T07:31:44;12.05;;;3.42;;
52918;SDS011;38793;52.690;6.812;2023-04-30T07:34:09;10.82;;;2.63;;
52918;SDS011;38793;52.690;6.812;2023-04-30T07:36:35;16.83;;;3.08;;
52918;SDS011;38793;52.690;6.812;2023-04-30T07:39:02;11.55;;;3.28;;
52918;SDS011;38793;52.690;6.812;2023-04-30T07:41:29;21.80;;;4.35;;
52918;SDS011;38793;52.690;6.812;2023-04-30T07:43:55;17.25;;;3.97;;
52918;SDS011;38793;52.690;6.812;2023-04-30T07:46:20;9.93;;;2.97;;
52918;SDS011;38793;52.690;6.812;2023-04-30T07:48:46;18.15;;;3.17;;
52918;SDS011;38793;52.690;6.812;2023-04-30T07:51:12;13.80;;;2.73;;
52918;SDS011;38793;52.690;6.812;2023-04-30T07:53:38;11.83;;;2.70;;
52918;SDS011;38793;52.690;6.812;2023-04-30T07:56:03;12.97;;;3.10;;
52918;SDS011;38793;52.690;6.812;2023-04-30T07:58:29;12.48;;;3.35;;
52918;SDS011;38793;52.690;6.812;2023-04-30T08:00:55;8.77;;;2.43;;
52918;SDS011;38793;52.690;6.812;2023-04-30T08:03:20;7.38;;;2.22;;
52918;SDS011;38793;52.690;6.812;2023-04-30T08:05:46;10.60;;;2.80;;
52918;SDS011;38793;52.690;6.812;2023-04-30T08:08:11;13.67;;;2.20;;
52918;SDS011;38793;52.690;6.812;2023-04-30T08:10:37;7.07;;;2.70;;
52918;SDS011;38793;52.690;6.812;2023-04-30T08:13:03;11.05;;;3.10;;
52918;SDS011;38793;52.690;6.812;2023-04-30T08:15:29;11.02;;;2.45;;
52918;SDS011;38793;52.690;6.812;2023-04-30T08:17:55;10.82;;;3.42;;
52918;SDS011;38793;52.690;6.812;2023-04-30T08:20:21;10.40;;;2.07;;
52918;SDS011;38793;52.690;6.812;2023-04-30T08:22:47;12.35;;;1.90;;
52918;SDS011;38793;52.690;6.812;2023-04-30T08:25:13;9.27;;;1.95;;
52918;SDS011;38793;52.690;6.812;2023-04-30T08:27:39;5.93;;;1.90;;
52918;SDS011;38793;52.690;6.812;2023-04-30T08:30:05;13.85;;;1.63;;
52918;SDS011;38793;52.690;6.812;2023-04-30T08:32:33;9.25;;;2.88;;
52918;SDS011;38793;52.690;6.812;2023-04-30T08:35:00;8.77;;;1.67;;
52918;SDS011;38793;52.690;6.812;2023-04-30T08:37:29;7.82;;;2.13;;
52918;SDS011;38793;52.690;6.812;2023-04-30T08:39:55;6.70;;;2.30;;
52918;SDS011;38793;52.690;6.812;2023-04-30T08:42:23;5.57;;;2.63;;
52918;SDS011;38793;52.690;6.812;2023-04-30T08:44:53;13.82;;;3.63;;
52918;SDS011;38793;52.690;6.812;2023-04-30T08:47:19;6.97;;;2.33;;
52918;SDS011;38793;52.690;6.812;2023-04-30T08:49:45;11.38;;;3.15;;
52918;SDS011;38793;52.690;6.812;2023-04-30T08:52:11;11.05;;;2.67;;
52918;SDS011;38793;52.690;6.812;2023-04-30T08:54:37;9.45;;;2.55;;
52918;SDS011;38793;52.690;6.812;2023-04-30T08:57:03;7.30;;;2.22;;
52918;SDS011;38793;52.690;6.812;2023-04-30T08:59:29;14.30;;;4.18;;
52918;SDS011;38793;52.690;6.812;2023-04-30T09:01:55;4.55;;;1.35;;
52918;SDS011;38793;52.690;6.812;2023-04-30T09:04:21;11.23;;;2.95;;
52918;SDS011;38793;52.690;6.812;2023-04-30T09:06:47;4.57;;;1.80;;
52918;SDS011;38793;52.690;6.812;2023-04-30T09:09:13;8.13;;;2.07;;
52918;SDS011;38793;52.690;6.812;2023-04-30T09:11:40;7.93;;;1.98;;
52918;SDS011;38793;52.690;6.812;2023-04-30T09:14:07;9.55;;;2.97;;
52918;SDS011;38793;52.690;6.812;2023-04-30T09:16:45;6.25;;;2.33;;
52918;SDS011;38793;52.690;6.812;2023-04-30T09:19:25;8.52;;;2.60;;
52918;SDS011;38793;52.690;6.812;2023-04-30T09:21:52;7.38;;;2.40;;
52918;SDS011;38793;52.690;6.812;2023-04-30T09:26:44;10.90;;;1.70;;
52918;SDS011;38793;52.690;6.812;2023-04-30T09:29:11;10.02;;;2.30;;
52918;SDS011;38793;52.690;6.812;2023-04-30T09:31:38;12.15;;;1.98;;
52918;SDS011;38793;52.690;6.812;2023-04-30T09:34:05;9.30;;;2.15;;
52918;SDS011;38793;52.690;6.812;2023-04-30T09:36:31;8.15;;;1.98;;
52918;SDS011;38793;52.690;6.812;2023-04-30T09:39:15;4.93;;;2.15;;
52918;SDS011;38793;52.690;6.812;2023-04-30T09:41:42;10.75;;;1.27;;
52918;SDS011;38793;52.690;6.812;2023-04-30T09:46:53;11.32;;;2.00;;
52918;SDS011;38793;52.690;6.812;2023-04-30T09:49:21;4.93;;;1.98;;
52918;SDS011;38793;52.690;6.812;2023-04-30T09:51:57;7.78;;;1.60;;
52918;SDS011;38793;52.690;6.812;2023-04-30T09:54:30;10.48;;;2.65;;
52918;SDS011;38793;52.690;6.812;2023-04-30T09:56:57;6.22;;;1.83;;
52918;SDS011;38793;52.690;6.812;2023-04-30T09:59:32;8.70;;;2.65;;
52918;SDS011;38793;52.690;6.812;2023-04-30T10:02:03;5.57;;;1.73;;
52918;SDS011;38793;52.690;6.812;2023-04-30T10:04:34;8.07;;;2.30;;
52918;SDS011;38793;52.690;6.812;2023-04-30T10:07:03;6.40;;;2.30;;
52918;SDS011;38793;52.690;6.812;2023-04-30T10:09:43;8.70;;;2.25;;
52918;SDS011;38793;52.690;6.812;2023-04-30T10:15:28;8.13;;;2.42;;
52918;SDS011;38793;52.690;6.812;2023-04-30T10:18:04;4.47;;;1.80;;
52918;SDS011;38793;52.690;6.812;2023-04-30T10:20:34;6.35;;;2.28;;
52918;SDS011;38793;52.690;6.812;2023-04-30T10:23:03;6.25;;;2.30;;
52918;SDS011;38793;52.690;6.812;2023-04-30T10:25:31;5.10;;;1.98;;
52918;SDS011;38793;52.690;6.812;2023-04-30T10:27:56;11.98;;;2.38;;
52918;SDS011;38793;52.690;6.812;2023-04-30T10:30:22;8.50;;;2.42;;
52918;SDS011;38793;52.690;6.812;2023-04-30T10:32:51;5.85;;;2.90;;
52918;SDS011;38793;52.690;6.812;2023-04-30T10:35:32;7.68;;;2.53;;
52918;SDS011;38793;52.690;6.812;2023-04-30T10:38:17;13.93;;;2.65;;
52918;SDS011;38793;52.690;6.812;2023-04-30T10:40:55;13.10;;;2.45;;
52918;SDS011;38793;52.690;6.812;2023-04-30T10:43:25;8.88;;;2.10;;
52918;SDS011;38793;52.690;6.812;2023-04-30T10:45:51;8.13;;;1.77;;
52918;SDS011;38793;52.690;6.812;2023-04-30T10:48:17;4.30;;;1.38;;
52918;SDS011;38793;52.690;6.812;2023-04-30T10:50:50;6.80;;;1.90;;
52918;SDS011;38793;52.690;6.812;2023-04-30T10:53:17;4.38;;;1.88;;
52918;SDS011;38793;52.690;6.812;2023-04-30T10:55:45;4.80;;;2.00;;
52918;SDS011;38793;52.690;6.812;2023-04-30T10:58:26;7.47;;;1.50;;
52918;SDS011;38793;52.690;6.812;2023-04-30T11:01:02;4.50;;;2.22;;
52918;SDS011;38793;52.690;6.812;2023-04-30T11:03:39;4.18;;;1.05;;
52918;SDS011;38793;52.690;6.812;2023-04-30T11:06:13;6.78;;;1.85;;
52918;SDS011;38793;52.690;6.812;2023-04-30T11:11:10;7.97;;;1.60;;
52918;SDS011;38793;52.690;6.812;2023-04-30T11:13:51;6.95;;;1.90;;
52918;SDS011;38793;52.690;6.812;2023-04-30T11:16:47;8.13;;;2.67;;
52918;SDS011;38793;52.690;6.812;2023-04-30T11:19:12;7.03;;;2.05;;
52918;SDS011;38793;52.690;6.812;2023-04-30T11:21:39;5.03;;;1.90;;
52918;SDS011;38793;52.690;6.812;2023-04-30T11:24:05;4.82;;;1.77;;
52918;SDS011;38793;52.690;6.812;2023-04-30T11:29:32;3.90;;;1.27;;
52918;SDS011;38793;52.690;6.812;2023-04-30T11:32:03;4.32;;;1.50;;
52918;SDS011;38793;52.690;6.812;2023-04-30T11:34:29;7.15;;;1.88;;
52918;SDS011;38793;52.690;6.812;2023-04-30T11:39:23;8.38;;;1.92;;
52918;SDS011;38793;52.690;6.812;2023-04-30T11:41:50;1.88;;;1.05;;
52918;SDS011;38793;52.690;6.812;2023-04-30T11:44:24;8.18;;;1.95;;
52918;SDS011;38793;52.690;6.812;2023-04-30T11:46:50;3.47;;;1.85;;
52918;SDS011;38793;52.690;6.812;2023-04-30T11:49:17;6.55;;;1.48;;
52918;SDS011;38793;52.690;6.812;2023-04-30T11:51:47;2.83;;;1.10;;
52918;SDS011;38793;52.690;6.812;2023-04-30T11:54:14;3.05;;;0.93;;
52918;SDS011;38793;52.690;6.812;2023-04-30T11:56:44;2.17;;;1.13;;
52918;SDS011;38793;52.690;6.812;2023-04-30T11:59:12;7.15;;;1.10;;
52918;SDS011;38793;52.690;6.812;2023-04-30T12:01:39;3.05;;;1.38;;
52918;SDS011;38793;52.690;6.812;2023-04-30T12:04:05;4.38;;;1.30;;
52918;SDS011;38793;52.690;6.812;2023-04-30T12:06:32;2.92;;;1.10;;
52918;SDS011;38793;52.690;6.812;2023-04-30T12:08:59;3.40;;;1.45;;
52918;SDS011;38793;52.690;6.812;2023-04-30T12:11:28;8.20;;;1.70;;
52918;SDS011;38793;52.690;6.812;2023-04-30T12:16:26;5.75;;;1.60;;
52918;SDS011;38793;52.690;6.812;2023-04-30T12:18:52;4.97;;;0.93;;
52918;SDS011;38793;52.690;6.812;2023-04-30T12:21:20;4.07;;;1.60;;
52918;SDS011;38793;52.690;6.812;2023-04-30T12:23:46;4.30;;;1.70;;
52918;SDS011;38793;52.690;6.812;2023-04-30T12:26:12;4.50;;;1.40;;
52918;SDS011;38793;52.690;6.812;2023-04-30T12:28:38;3.47;;;1.10;;
52918;SDS011;38793;52.690;6.812;2023-04-30T12:31:03;2.30;;;1.10;;
52918;SDS011;38793;52.690;6.812;2023-04-30T12:33:30;3.25;;;1.00;;
52918;SDS011;38793;52.690;6.812;2023-04-30T12:35:56;2.40;;;0.70;;
52918;SDS011;38793;52.690;6.812;2023-04-30T12:38:24;2.03;;;1.08;;
52918;SDS011;38793;52.690;6.812;2023-04-30T12:40:50;7.20;;;1.23;;
52918;SDS011;38793;52.690;6.812;2023-04-30T12:43:16;4.50;;;1.02;;
52918;SDS011;38793;52.690;6.812;2023-04-30T12:46:00;2.92;;;1.02;;
52918;SDS011;38793;52.690;6.812;2023-04-30T12:48:26;2.08;;;0.90;;
52918;SDS011;38793;52.690;6.812;2023-04-30T12:50:53;2.55;;;1.05;;
52918;SDS011;38793;52.690;6.812;2023-04-30T12:53:20;3.35;;;0.80;;
52918;SDS011;38793;52.690;6.812;2023-04-30T12:58:31;5.28;;;0.80;;
52918;SDS011;38793;52.690;6.812;2023-04-30T13:00:56;2.00;;;0.60;;
52918;SDS011;38793;52.690;6.812;2023-04-30T13:05:51;3.35;;;0.75;;
52918;SDS011;38793;52.690;6.812;2023-04-30T13:08:18;3.38;;;0.60;;
52918;SDS011;38793;52.690;6.812;2023-04-30T13:10:44;3.72;;;1.00;;
52918;SDS011;38793;52.690;6.812;2023-04-30T13:13:11;3.33;;;0.90;;
52918;SDS011;38793;52.690;6.812;2023-04-30T13:15:37;6.88;;;1.35;;
52918;SDS011;38793;52.690;6.812;2023-04-30T13:18:04;3.42;;;1.60;;
52918;SDS011;38793;52.690;6.812;2023-04-30T13:20:33;3.33;;;1.63;;
52918;SDS011;38793;52.690;6.812;2023-04-30T13:23:01;3.85;;;0.80;;
52918;SDS011;38793;52.690;6.812;2023-04-30T13:25:28;3.05;;;1.00;;
52918;SDS011;38793;52.690;6.812;2023-04-30T13:27:54;4.25;;;0.90;;
52918;SDS011;38793;52.690;6.812;2023-04-30T13:30:21;5.20;;;1.00;;
52918;SDS011;38793;52.690;6.812;2023-04-30T13:32:47;4.38;;;0.88;;
52918;SDS011;38793;52.690;6.812;2023-04-30T13:35:13;3.40;;;1.17;;
52918;SDS011;38793;52.690;6.812;2023-04-30T13:37:39;4.65;;;0.93;;
52918;SDS011;38793;52.690;6.812;2023-04-30T13:40:08;4.30;;;1.13;;
52918;SDS011;38793;52.690;6.812;2023-04-30T13:42:37;5.32;;;0.82;;
52918;SDS011;38793;52.690;6.812;2023-04-30T13:45:05;3.33;;;0.50;;
52918;SDS011;38793;52.690;6.812;2023-04-30T13:47:32;4.35;;;1.00;;
52918;SDS011;38793;52.690;6.812;2023-04-30T13:49:58;2.83;;;0.88;;
52918;SDS011;38793;52.690;6.812;2023-04-30T13:52:24;5.93;;;0.90;;
52918;SDS011;38793;52.690;6.812;2023-04-30T13:54:50;3.08;;;1.13;;
52918;SDS011;38793;52.690;6.812;2023-04-30T13:57:16;3.88;;;1.30;;
52918;SDS011;38793;52.690;6.812;2023-04-30T13:59:42;2.85;;;0.95;;
52918;SDS011;38793;52.690;6.812;2023-04-30T14:02:07;4.13;;;1.10;;
52918;SDS011;38793;52.690;6.812;2023-04-30T14:04:33;3.22;;;0.95;;
52918;SDS011;38793;52.690;6.812;2023-04-30T14:06:59;3.92;;;1.02;;
52918;SDS011;38793;52.690;6.812;2023-04-30T14:09:25;6.25;;;1.20;;
52918;SDS011;38793;52.690;6.812;2023-04-30T14:11:51;5.32;;;1.10;;
52918;SDS011;38793;52.690;6.812;2023-04-30T14:14:16;3.25;;;1.05;;
52918;SDS011;38793;52.690;6.812;2023-04-30T14:16:42;4.80;;;0.50;;
52918;SDS011;38793;52.690;6.812;2023-04-30T14:21:34;3.50;;;0.60;;
52918;SDS011;38793;52.690;6.812;2023-04-30T14:24:00;3.30;;;0.65;;
52918;SDS011;38793;52.690;6.812;2023-04-30T14:26:26;2.20;;;0.80;;
52918;SDS011;38793;52.690;6.812;2023-04-30T14:28:51;2.17;;;0.47;;
52918;SDS011;38793;52.690;6.812;2023-04-30T14:31:17;6.88;;;0.63;;
52918;SDS011;38793;52.690;6.812;2023-04-30T14:33:42;3.92;;;0.57;;
52918;SDS011;38793;52.690;6.812;2023-04-30T14:36:09;5.43;;;0.52;;
52918;SDS011;38793;52.690;6.812;2023-04-30T14:38:35;5.63;;;0.75;;
52918;SDS011;38793;52.690;6.812;2023-04-30T14:41:00;7.15;;;1.25;;
52918;SDS011;38793;52.690;6.812;2023-04-30T14:43:26;2.75;;;0.73;;
52918;SDS011;38793;52.690;6.812;2023-04-30T14:45:52;5.22;;;0.70;;
52918;SDS011;38793;52.690;6.812;2023-04-30T14:48:17;2.67;;;0.73;;
52918;SDS011;38793;52.690;6.812;2023-04-30T14:50:43;5.38;;;0.65;;
52918;SDS011;38793;52.690;6.812;2023-04-30T14:53:09;2.90;;;1.15;;
52918;SDS011;38793;52.690;6.812;2023-04-30T14:55:36;3.83;;;0.63;;
52918;SDS011;38793;52.690;6.812;2023-04-30T14:58:03;4.63;;;0.93;;
52918;SDS011;38793;52.690;6.812;2023-04-30T15:00:29;4.40;;;0.70;;
52918;SDS011;38793;52.690;6.812;2023-04-30T15:02:56;4.38;;;0.80;;
52918;SDS011;38793;52.690;6.812;2023-04-30T15:05:21;118.43;;;7.32;;
52918;SDS011;38793;52.690;6.812;2023-04-30T15:07:47;3.17;;;0.70;;
52918;SDS011;38793;52.690;6.812;2023-04-30T15:10:12;2.00;;;0.52;;
52918;SDS011;38793;52.690;6.812;2023-04-30T15:12:38;1.27;;;0.57;;
52918;SDS011;38793;52.690;6.812;2023-04-30T15:15:04;5.65;;;0.73;;
52918;SDS011;38793;52.690;6.812;2023-04-30T15:17:30;2.90;;;0.30;;
52918;SDS011;38793;52.690;6.812;2023-04-30T15:20:00;2.10;;;0.68;;
52918;SDS011;38793;52.690;6.812;2023-04-30T15:22:30;2.45;;;0.30;;
52918;SDS011;38793;52.690;6.812;2023-04-30T15:24:57;2.13;;;0.30;;
52918;SDS011;38793;52.690;6.812;2023-04-30T15:29:50;3.78;;;0.82;;
52918;SDS011;38793;52.690;6.812;2023-04-30T15:32:16;2.90;;;0.77;;
52918;SDS011;38793;52.690;6.812;2023-04-30T15:34:43;3.75;;;0.70;;